createdAt,value
2022-12-04T00:00:19.280Z,97.01
2022-12-04T00:03:22.130Z,97.09
2022-12-04T00:06:25.786Z,96.64
2022-12-04T00:09:28.710Z,96.86
2022-12-04T00:12:31.499Z,97.04
2022-12-04T00:15:34.265Z,97.04
2022-12-04T00:18:37.449Z,96.95
2022-12-04T00:21:40.393Z,97.76
2022-12-04T00:24:43.263Z,97.79
2022-12-04T00:27:46.060Z,97.22
2022-12-04T00:30:49.270Z,97.63
2022-12-04T00:33:53.263Z,97.53
2022-12-04T00:36:56.150Z,98.03
2022-12-04T00:39:58.927Z,98.18
2022-12-04T00:43:02.181Z,98.38
2022-12-04T00:46:05.888Z,98.94
2022-12-04T00:49:09.159Z,98.64
2022-12-04T00:52:11.957Z,99.08
2022-12-04T00:55:15.049Z,98.60
2022-12-04T00:58:18.181Z,98.86
2022-12-04T01:01:21.870Z,98.28
2022-12-04T01:04:24.980Z,98.41
2022-12-04T01:07:27.892Z,98.48
2022-12-04T01:10:31.126Z,97.75
2022-12-04T01:13:34.359Z,98.35
2022-12-04T01:16:39.602Z,98.27
2022-12-04T01:19:42.766Z,99.01
2022-12-04T01:22:45.541Z,98.87
2022-12-04T01:25:58.248Z,98.85
2022-12-04T01:29:02.052Z,99.20
2022-12-04T01:32:05.107Z,98.80
2022-12-04T01:35:08.400Z,98.78
2022-12-04T01:38:11.469Z,99.24
2022-12-04T01:41:16.394Z,98.80
2022-12-04T01:44:25.150Z,98.88
2022-12-04T01:47:27.851Z,98.83
2022-12-04T01:50:31.384Z,98.75
2022-12-04T01:53:38.603Z,98.66
2022-12-04T01:56:52.395Z,98.57
2022-12-04T02:00:07.054Z,98.26
2022-12-04T02:03:10.108Z,98.22
2022-12-04T02:06:12.921Z,98.63
2022-12-04T02:09:17.031Z,98.16
2022-12-04T02:12:43.855Z,98.68
2022-12-04T02:15:58.809Z,98.69
2022-12-04T02:19:01.593Z,98.34
2022-12-04T02:22:20.051Z,98.16
2022-12-04T02:25:54.838Z,98.47
2022-12-04T02:29:05.337Z,98.19
2022-12-04T02:32:29.273Z,98.23
2022-12-04T02:35:40.388Z,98.23
2022-12-04T02:38:52.649Z,98.15
2022-12-04T02:42:02.786Z,98.50
2022-12-04T02:45:14.997Z,98.22
2022-12-04T02:48:20.977Z,98.23
2022-12-04T02:51:27.692Z,97.94
2022-12-04T02:54:40.662Z,97.56
2022-12-04T02:57:48.908Z,98.48
2022-12-04T03:00:55.100Z,98.53
2022-12-04T03:04:03.256Z,97.88
2022-12-04T03:07:13.435Z,98.47
2022-12-04T03:10:28.130Z,98.47
2022-12-04T03:13:37.232Z,98.33
2022-12-04T03:16:42.047Z,98.08
2022-12-04T03:19:50.865Z,98.72
2022-12-04T03:22:59.790Z,98.17
2022-12-04T03:26:02.575Z,97.92
2022-12-04T03:29:27.354Z,98.51
2022-12-04T03:33:06.282Z,97.65
2022-12-04T03:36:31.628Z,98.09
2022-12-04T03:39:53.131Z,97.66
2022-12-04T03:42:59.076Z,98.31
2022-12-04T03:46:22.582Z,98.07
2022-12-04T03:49:45.020Z,98.06
2022-12-04T03:53:09.076Z,98.17
2022-12-04T03:56:26.548Z,98.90
2022-12-04T03:59:51.125Z,98.11
2022-12-04T04:03:06.870Z,98.17
2022-12-04T04:06:14.297Z,97.97
2022-12-04T04:09:24.251Z,97.80
2022-12-04T04:12:33.178Z,97.84
2022-12-04T04:16:00.052Z,98.43
2022-12-04T04:19:22.636Z,98.50
2022-12-04T04:22:46.165Z,98.54
2022-12-04T04:25:51.667Z,98.38
2022-12-04T04:28:54.420Z,98.55
2022-12-04T04:32:04.555Z,97.99
2022-12-04T04:35:22.048Z,98.25
2022-12-04T04:38:45.705Z,98.50
2022-12-04T04:41:57.380Z,98.50
2022-12-04T04:45:14.094Z,97.78
2022-12-04T04:48:20.203Z,98.07
2022-12-04T04:51:23.703Z,98.08
2022-12-04T04:54:30.028Z,98.21
2022-12-04T04:57:38.300Z,97.73
2022-12-04T05:00:46.410Z,98.03
2022-12-04T05:03:49.167Z,97.98
2022-12-04T05:06:51.886Z,98.02
2022-12-04T05:09:55.110Z,98.04
2022-12-04T05:12:58.163Z,98.20
2022-12-04T05:16:04.408Z,98.28
2022-12-04T05:19:25.754Z,98.28
2022-12-04T05:22:33.808Z,98.30
2022-12-04T05:25:36.541Z,97.87
2022-12-04T05:28:41.238Z,98.53
2022-12-04T05:31:44.266Z,97.97
2022-12-04T05:34:55.103Z,98.18
2022-12-04T05:37:58.030Z,98.21
2022-12-04T05:41:02.708Z,98.16
2022-12-04T05:44:05.596Z,97.89
2022-12-04T05:47:08.522Z,98.15
2022-12-04T05:50:13.312Z,98.46
2022-12-04T05:53:16.192Z,97.95
2022-12-04T05:56:19.029Z,97.94
2022-12-04T05:59:22.078Z,97.63
2022-12-04T06:02:24.954Z,97.30
2022-12-04T06:05:27.804Z,97.21
2022-12-04T06:08:32.250Z,96.63
2022-12-04T06:11:37.462Z,96.75
2022-12-04T06:14:40.242Z,97.03
2022-12-04T06:17:42.978Z,97.22
2022-12-04T06:20:45.787Z,96.69
2022-12-04T06:23:48.966Z,96.73
2022-12-04T06:30:19.239Z,96.61
2022-12-04T06:33:22.019Z,96.45
2022-12-04T06:36:25.079Z,95.95
2022-12-04T06:39:28.214Z,95.63
2022-12-04T06:42:30.990Z,95.53
2022-12-04T06:45:33.900Z,95.12
2022-12-04T06:48:37.110Z,93.97
2022-12-04T06:51:41.085Z,94.24
2022-12-04T06:54:44.070Z,93.21
2022-12-04T06:57:46.847Z,93.44
2022-12-04T07:00:49.665Z,93.02
2022-12-04T07:03:52.954Z,92.59
2022-12-04T07:06:55.920Z,92.37
2022-12-04T07:09:58.789Z,92.16
2022-12-04T07:13:01.665Z,91.38
2022-12-04T07:16:07.017Z,90.75
2022-12-04T07:19:11.508Z,90.59
2022-12-04T07:22:15.089Z,89.75
2022-12-04T07:25:18.658Z,89.37
2022-12-04T07:28:21.445Z,87.64
2022-12-04T07:31:26.509Z,86.38
2022-12-04T07:34:29.572Z,83.19
2022-12-04T07:37:32.488Z,82.01
2022-12-04T07:40:37.673Z,81.02
2022-12-04T07:43:41.447Z,80.61
2022-12-04T07:46:44.214Z,79.38
2022-12-04T07:49:47.024Z,78.54
2022-12-04T07:52:49.959Z,80.87
2022-12-04T07:55:53.241Z,82.18
2022-12-04T07:58:56.188Z,83.48
2022-12-04T08:01:59.283Z,80.97
2022-12-04T08:05:02.412Z,77.39
2022-12-04T08:08:05.640Z,74.22
2022-12-04T08:11:11.198Z,72.77
2022-12-04T08:14:14.072Z,70.64
2022-12-04T08:17:17.411Z,71.50
2022-12-04T08:20:20.310Z,67.98
2022-12-04T08:23:23.113Z,66.87
2022-12-04T08:26:28.385Z,67.86
2022-12-04T08:29:31.134Z,65.83
2022-12-04T08:32:34.202Z,61.99
2022-12-04T08:35:36.952Z,55.96
2022-12-04T08:38:39.891Z,56.05
2022-12-04T08:41:42.662Z,52.97
2022-12-04T08:44:46.158Z,52.12
2022-12-04T08:47:52.468Z,54.30
2022-12-04T08:50:55.950Z,55.34
2022-12-04T08:54:01.323Z,54.88
2022-12-04T08:57:04.276Z,57.13
2022-12-04T09:00:07.827Z,54.52
2022-12-04T09:03:16.259Z,56.49
2022-12-04T09:06:20.382Z,58.79
2022-12-04T09:09:23.407Z,58.48
2022-12-04T09:12:26.446Z,57.62
2022-12-04T09:15:29.540Z,57.35
2022-12-04T09:18:33.681Z,54.01
2022-12-04T09:21:37.006Z,55.30
2022-12-04T09:24:41.248Z,55.33
2022-12-04T09:27:45.135Z,55.17
2022-12-04T09:31:05.472Z,53.86
2022-12-04T09:34:08.543Z,59.29
2022-12-04T09:37:11.531Z,65.15
2022-12-04T09:40:38.112Z,67.80
2022-12-04T09:43:50.723Z,70.84
2022-12-04T09:46:59.735Z,72.58
2022-12-04T09:50:12.620Z,73.02
2022-12-04T09:53:28.044Z,72.26
2022-12-04T09:56:32.370Z,73.34
2022-12-04T09:59:35.371Z,73.24
2022-12-04T10:02:41.950Z,71.62
2022-12-04T10:06:03.771Z,71.92
2022-12-04T10:09:31.277Z,71.84
2022-12-04T10:13:01.765Z,70.38
2022-12-04T10:16:15.116Z,70.91
2022-12-04T10:19:37.729Z,70.70
2022-12-04T10:22:56.650Z,69.58
2022-12-04T10:26:01.999Z,65.40
2022-12-04T10:29:12.448Z,66.79
2022-12-04T10:32:32.890Z,71.25
2022-12-04T10:35:37.998Z,71.09
2022-12-04T10:38:47.582Z,71.06
2022-12-04T10:42:01.908Z,71.55
2022-12-04T10:45:07.429Z,71.53
2022-12-04T10:48:41.973Z,71.17
2022-12-04T10:51:46.213Z,70.40
2022-12-04T10:54:55.279Z,70.84
2022-12-04T10:57:58.184Z,69.17
2022-12-04T11:01:05.341Z,70.50
2022-12-04T11:04:18.727Z,71.15
2022-12-04T11:07:25.528Z,70.38
2022-12-04T11:10:32.161Z,71.16
2022-12-04T11:13:35.221Z,72.28
2022-12-04T11:16:42.146Z,73.02
2022-12-04T11:19:45.553Z,73.22
2022-12-04T11:22:52.270Z,74.09
2022-12-04T11:26:03.745Z,74.68
2022-12-04T11:29:14.771Z,75.54
2022-12-04T11:32:25.443Z,76.23
2022-12-04T11:35:30.439Z,76.52
2022-12-04T11:38:35.733Z,76.13
2022-12-04T11:41:40.375Z,75.82
2022-12-04T11:45:13.499Z,76.30
2022-12-04T11:48:21.421Z,75.45
2022-12-04T11:51:49.299Z,75.47
2022-12-04T11:55:04.584Z,75.81
2022-12-04T11:58:38.610Z,75.06
2022-12-04T12:02:03.373Z,76.55
2022-12-04T12:05:12.401Z,76.71
2022-12-04T12:08:56.761Z,77.08
2022-12-04T12:12:08.501Z,77.72
2022-12-04T12:15:36.308Z,77.28
2022-12-04T12:19:12.802Z,76.46
2022-12-04T12:22:49.274Z,76.30
2022-12-04T12:26:21.682Z,75.43
2022-12-04T12:29:50.582Z,75.47
2022-12-04T12:33:19.205Z,75.65
2022-12-04T12:36:24.920Z,76.24
2022-12-04T12:40:01.365Z,76.37
2022-12-04T12:43:37.277Z,76.80
2022-12-04T12:46:49.194Z,76.94
2022-12-04T12:50:05.064Z,77.46
2022-12-04T12:53:22.738Z,77.21
2022-12-04T12:56:42.300Z,77.41
2022-12-04T12:59:58.564Z,77.65
2022-12-04T13:03:30.708Z,77.53
2022-12-04T13:06:40.136Z,78.01
2022-12-04T13:09:50.407Z,78.37
2022-12-04T13:13:00.060Z,78.59
2022-12-04T13:16:24.691Z,78.53
2022-12-04T13:19:43.591Z,79.01
2022-12-04T13:23:05.173Z,78.74
2022-12-04T13:26:22.852Z,78.93
2022-12-04T13:30:09.065Z,79.05
2022-12-04T13:33:38.161Z,79.35
2022-12-04T13:37:03.857Z,79.07
2022-12-04T13:40:28.465Z,78.80
2022-12-04T13:43:47.344Z,79.00
2022-12-04T13:47:02.305Z,78.72
2022-12-04T13:50:10.722Z,78.82
2022-12-04T13:53:37.817Z,79.65
2022-12-04T13:56:46.028Z,79.80
2022-12-04T13:59:49.521Z,80.04
2022-12-04T14:02:55.972Z,79.10
2022-12-04T14:06:05.250Z,79.23
2022-12-04T14:09:38.625Z,79.19
2022-12-04T14:12:49.538Z,78.77
2022-12-04T14:16:04.733Z,78.93
2022-12-04T14:19:09.085Z,78.78
2022-12-04T14:22:39.629Z,79.45
2022-12-04T14:25:42.902Z,79.00
2022-12-04T14:28:46.050Z,78.82
2022-12-04T14:31:50.061Z,79.30
2022-12-04T14:34:54.463Z,78.96
2022-12-04T14:38:02.167Z,79.24
2022-12-04T14:41:05.079Z,79.04
2022-12-04T14:44:22.452Z,79.29
2022-12-04T14:48:04.448Z,79.94
2022-12-04T14:51:22.579Z,79.98
2022-12-04T14:54:32.432Z,80.89
2022-12-04T14:57:52.763Z,81.22
2022-12-04T15:00:58.788Z,81.65
2022-12-04T15:04:24.577Z,81.75
2022-12-04T15:07:31.098Z,82.92
2022-12-04T15:10:53.750Z,83.77
2022-12-04T15:14:05.704Z,84.57
2022-12-04T15:17:11.384Z,85.16
2022-12-04T15:20:17.943Z,85.44
2022-12-04T15:23:44.918Z,86.43
2022-12-04T15:26:50.222Z,86.28
2022-12-04T15:29:56.557Z,87.15
2022-12-04T15:32:59.878Z,87.70
2022-12-04T15:36:08.456Z,88.24
2022-12-04T15:39:19.277Z,88.98
2022-12-04T15:42:22.291Z,89.22
2022-12-04T15:45:31.940Z,89.46
2022-12-04T15:48:34.797Z,88.74
2022-12-04T15:51:37.956Z,89.64
2022-12-04T15:55:08.236Z,89.26
2022-12-04T15:58:33.045Z,89.99
2022-12-04T16:01:40.443Z,89.54
2022-12-04T16:04:45.591Z,88.63
2022-12-04T16:07:51.897Z,89.26
2022-12-04T16:11:01.275Z,88.92
2022-12-04T16:14:18.548Z,89.41
2022-12-04T16:17:28.272Z,89.44
2022-12-04T16:20:31.569Z,89.46
2022-12-04T16:23:34.384Z,89.52
2022-12-04T16:26:37.506Z,88.51
2022-12-04T16:29:41.271Z,89.21
2022-12-04T16:32:44.254Z,89.42
2022-12-04T16:35:47.306Z,88.71
2022-12-04T16:38:50.681Z,88.57
2022-12-04T16:41:53.715Z,88.19
2022-12-04T16:44:58.315Z,88.31
2022-12-04T16:48:01.752Z,87.85
2022-12-04T16:51:04.670Z,88.13
2022-12-04T16:54:10.342Z,88.50
2022-12-04T16:57:13.319Z,88.05
2022-12-04T17:00:18.650Z,87.49
2022-12-04T17:03:31.204Z,87.66
2022-12-04T17:06:34.235Z,87.31
2022-12-04T17:09:37.298Z,87.03
2022-12-04T17:12:41.179Z,87.18
2022-12-04T17:15:44.507Z,87.18
2022-12-04T17:18:47.471Z,87.04
2022-12-04T17:21:50.554Z,86.42
2022-12-04T17:24:57.625Z,87.74
2022-12-04T17:28:01.062Z,86.64
2022-12-04T17:31:06.454Z,86.70
2022-12-04T17:34:09.406Z,87.29
2022-12-04T17:37:12.519Z,87.03
2022-12-04T17:40:16.807Z,86.82
2022-12-04T17:43:22.201Z,86.50
2022-12-04T17:46:25.734Z,86.69
2022-12-04T17:49:28.911Z,86.79
2022-12-04T17:52:31.974Z,86.79
2022-12-04T17:55:35.149Z,86.92
2022-12-04T17:58:38.769Z,87.11
2022-12-04T18:01:41.770Z,87.11
2022-12-04T18:04:45.803Z,86.64
2022-12-04T18:07:48.657Z,85.72
2022-12-04T18:10:51.869Z,86.39
2022-12-04T18:13:57.500Z,87.21
2022-12-04T18:17:01.515Z,87.08
2022-12-04T18:20:05.804Z,86.96
2022-12-04T18:23:09.192Z,86.86
2022-12-04T18:26:18.041Z,86.76
2022-12-04T18:29:24.788Z,87.17
2022-12-04T18:32:27.927Z,87.68
2022-12-04T18:35:30.932Z,87.64
2022-12-04T18:38:34.401Z,87.92
2022-12-04T18:41:38.170Z,87.60
2022-12-04T18:44:41.603Z,88.42
2022-12-04T18:47:44.618Z,88.07
2022-12-04T18:50:47.815Z,88.09
2022-12-04T18:53:55.472Z,87.76
2022-12-04T18:56:58.728Z,87.54
2022-12-04T19:00:02.275Z,87.99
2022-12-04T19:03:06.083Z,87.71
2022-12-04T19:06:12.538Z,88.54
2022-12-04T19:09:18.593Z,87.90
2022-12-04T19:12:21.784Z,87.87
2022-12-04T19:15:25.370Z,88.09
2022-12-04T19:18:29.982Z,87.94
2022-12-04T19:21:33.691Z,88.15
2022-12-04T19:24:36.783Z,87.62
2022-12-04T19:27:39.641Z,87.26
2022-12-04T19:30:42.677Z,88.03
2022-12-04T19:33:46.352Z,87.12
2022-12-04T19:36:50.275Z,88.01
2022-12-04T19:39:53.528Z,87.54
2022-12-04T19:43:02.496Z,87.53
2022-12-04T19:46:07.938Z,87.19
2022-12-04T19:49:12.919Z,86.94
2022-12-04T19:52:17.519Z,87.17
2022-12-04T19:55:21.060Z,87.53
2022-12-04T19:58:26.366Z,87.64
2022-12-04T20:01:32.425Z,87.57
2022-12-04T20:04:35.636Z,87.80
2022-12-04T20:07:39.277Z,87.63
2022-12-04T20:10:43.169Z,87.84
2022-12-04T20:13:49.071Z,87.80
2022-12-04T20:16:52.173Z,88.28
2022-12-04T20:19:56.706Z,88.37
2022-12-04T20:22:59.917Z,87.85
2022-12-04T20:26:06.659Z,88.10
2022-12-04T20:29:13.155Z,88.32
2022-12-04T20:32:16.165Z,88.41
2022-12-04T20:35:19.218Z,89.25
2022-12-04T20:38:23.769Z,88.54
2022-12-04T20:41:29.545Z,88.77
2022-12-04T20:44:32.555Z,88.89
2022-12-04T20:47:36.555Z,88.75
2022-12-04T20:50:41.473Z,87.95
2022-12-04T20:53:47.982Z,88.65
2022-12-04T20:56:53.226Z,88.89
2022-12-04T20:59:56.868Z,89.18
2022-12-04T21:03:00.187Z,89.01
2022-12-04T21:06:03.189Z,88.75
2022-12-04T21:09:11.114Z,89.17
2022-12-04T21:12:32.537Z,88.96
2022-12-04T21:16:05.265Z,88.56
2022-12-04T21:19:11.355Z,88.97
2022-12-04T21:22:17.049Z,88.85
2022-12-04T21:25:19.984Z,88.73
2022-12-04T21:28:22.734Z,89.37
2022-12-04T21:31:28.818Z,89.63
2022-12-04T21:34:32.017Z,89.95
2022-12-04T21:37:34.898Z,89.68
2022-12-04T21:40:42.300Z,89.79
2022-12-04T21:43:45.589Z,90.16
2022-12-04T21:46:49.620Z,90.06
2022-12-04T21:49:54.603Z,90.13
2022-12-04T21:52:57.440Z,90.38
2022-12-04T21:56:00.265Z,90.02
2022-12-04T21:59:03.708Z,90.13
2022-12-04T22:02:06.765Z,89.97
2022-12-04T22:05:09.619Z,90.21
2022-12-04T22:08:13.408Z,90.73
2022-12-04T22:11:17.379Z,90.28
2022-12-04T22:14:20.151Z,91.01
2022-12-04T22:17:22.882Z,90.95
2022-12-04T22:20:25.969Z,91.30
2022-12-04T22:23:28.768Z,91.40
2022-12-04T22:26:32.402Z,91.66
2022-12-04T22:29:49.933Z,91.47
2022-12-04T22:32:54.131Z,91.75
2022-12-04T22:36:05.639Z,92.14
2022-12-04T22:39:10.128Z,92.52
2022-12-04T22:42:13.516Z,93.14
2022-12-04T22:45:16.247Z,93.58
2022-12-04T22:48:18.986Z,94.24
2022-12-04T22:51:22.197Z,94.49
2022-12-04T22:54:24.923Z,94.77
2022-12-04T22:57:28.509Z,94.67
2022-12-04T23:00:31.218Z,95.95
2022-12-04T23:03:34.278Z,95.67
2022-12-04T23:06:37.185Z,96.05
2022-12-04T23:09:40.287Z,97.03
2022-12-04T23:12:43.017Z,96.70
2022-12-04T23:15:45.816Z,97.35
2022-12-04T23:18:49.636Z,97.60
2022-12-04T23:21:57.003Z,97.81
2022-12-04T23:25:00.225Z,97.44
2022-12-04T23:28:03.009Z,98.24
2022-12-04T23:31:06.185Z,97.69
2022-12-04T23:34:09.006Z,97.55
2022-12-04T23:37:11.960Z,97.65
2022-12-04T23:40:15.093Z,97.79
2022-12-04T23:43:18.243Z,98.16
2022-12-04T23:46:24.838Z,98.44
2022-12-04T23:49:27.813Z,98.32
2022-12-04T23:52:31.211Z,98.37
2022-12-04T23:55:34.694Z,98.72
2022-12-04T23:58:38.824Z,98.60
